sensor_id;sensor_type;location;lat;lon;timestamp;temperature;humidity
68922;DHT22;55959;51.244;5.724;2022-07-24T00:00:38;23.10;54.80
68922;DHT22;55959;51.244;5.724;2022-07-24T00:03:04;23.00;54.80
68922;DHT22;55959;51.244;5.724;2022-07-24T00:05:30;23.00;54.80
68922;DHT22;55959;51.244;5.724;2022-07-24T00:07:56;23.00;55.50
68922;DHT22;55959;51.244;5.724;2022-07-24T00:10:22;22.90;54.90
68922;DHT22;55959;51.244;5.724;2022-07-24T00:12:48;22.90;54.90
68922;DHT22;55959;51.244;5.724;2022-07-24T00:15:14;22.90;55.00
68922;DHT22;55959;51.244;5.724;2022-07-24T00:17:40;22.90;55.10
68922;DHT22;55959;51.244;5.724;2022-07-24T00:20:07;22.80;55.20
68922;DHT22;55959;51.244;5.724;2022-07-24T00:22:34;22.80;55.30
68922;DHT22;55959;51.244;5.724;2022-07-24T00:24:59;22.80;55.30
68922;DHT22;55959;51.244;5.724;2022-07-24T00:27:25;22.80;55.30
68922;DHT22;55959;51.244;5.724;2022-07-24T00:29:51;22.70;55.20
68922;DHT22;55959;51.244;5.724;2022-07-24T00:32:17;22.70;55.30
68922;DHT22;55959;51.244;5.724;2022-07-24T00:34:42;22.70;55.30
68922;DHT22;55959;51.244;5.724;2022-07-24T00:37:08;22.70;55.40
68922;DHT22;55959;51.244;5.724;2022-07-24T00:39:34;22.60;55.40
68922;DHT22;55959;51.244;5.724;2022-07-24T00:42:00;22.60;55.50
68922;DHT22;55959;51.244;5.724;2022-07-24T00:44:25;22.60;55.50
68922;DHT22;55959;51.244;5.724;2022-07-24T00:46:51;22.60;55.50
68922;DHT22;55959;51.244;5.724;2022-07-24T00:49:18;22.50;55.50
68922;DHT22;55959;51.244;5.724;2022-07-24T00:51:47;22.50;55.60
68922;DHT22;55959;51.244;5.724;2022-07-24T00:54:15;22.50;55.80
68922;DHT22;55959;51.244;5.724;2022-07-24T00:56:43;22.50;55.70
68922;DHT22;55959;51.244;5.724;2022-07-24T00:59:11;22.50;55.80
68922;DHT22;55959;51.244;5.724;2022-07-24T01:01:37;22.40;55.90
68922;DHT22;55959;51.244;5.724;2022-07-24T01:04:03;22.40;55.90
68922;DHT22;55959;51.244;5.724;2022-07-24T01:06:29;22.40;56.00
68922;DHT22;55959;51.244;5.724;2022-07-24T01:08:55;22.40;56.10
68922;DHT22;55959;51.244;5.724;2022-07-24T01:11:23;22.40;56.20
68922;DHT22;55959;51.244;5.724;2022-07-24T01:13:49;22.30;56.30
68922;DHT22;55959;51.244;5.724;2022-07-24T01:16:16;22.30;56.30
68922;DHT22;55959;51.244;5.724;2022-07-24T01:18:41;22.30;56.50
68922;DHT22;55959;51.244;5.724;2022-07-24T01:21:07;22.30;56.50
68922;DHT22;55959;51.244;5.724;2022-07-24T01:23:34;22.20;56.50
68922;DHT22;55959;51.244;5.724;2022-07-24T01:26:00;22.20;56.60
68922;DHT22;55959;51.244;5.724;2022-07-24T01:28:27;22.20;56.60
68922;DHT22;55959;51.244;5.724;2022-07-24T01:30:53;22.20;56.70
68922;DHT22;55959;51.244;5.724;2022-07-24T01:33:19;22.20;56.90
68922;DHT22;55959;51.244;5.724;2022-07-24T01:35:45;22.10;56.90
68922;DHT22;55959;51.244;5.724;2022-07-24T01:38:11;22.10;57.00
68922;DHT22;55959;51.244;5.724;2022-07-24T01:40:40;22.10;57.00
68922;DHT22;55959;51.244;5.724;2022-07-24T01:43:06;22.10;57.10
68922;DHT22;55959;51.244;5.724;2022-07-24T01:45:32;22.00;57.10
68922;DHT22;55959;51.244;5.724;2022-07-24T01:47:58;22.00;57.10
68922;DHT22;55959;51.244;5.724;2022-07-24T01:50:24;22.00;57.30
68922;DHT22;55959;51.244;5.724;2022-07-24T01:52:50;22.00;57.10
68922;DHT22;55959;51.244;5.724;2022-07-24T01:55:18;21.90;57.20
68922;DHT22;55959;51.244;5.724;2022-07-24T01:57:46;21.90;57.30
68922;DHT22;55959;51.244;5.724;2022-07-24T02:00:13;21.90;57.30
68922;DHT22;55959;51.244;5.724;2022-07-24T02:02:41;21.90;57.40
68922;DHT22;55959;51.244;5.724;2022-07-24T02:05:08;21.90;57.40
68922;DHT22;55959;51.244;5.724;2022-07-24T02:07:34;21.90;57.40
68922;DHT22;55959;51.244;5.724;2022-07-24T02:10:00;21.80;57.50
68922;DHT22;55959;51.244;5.724;2022-07-24T02:12:26;21.80;57.60
68922;DHT22;55959;51.244;5.724;2022-07-24T02:14:52;21.80;57.70
68922;DHT22;55959;51.244;5.724;2022-07-24T02:17:17;21.70;57.70
68922;DHT22;55959;51.244;5.724;2022-07-24T02:19:43;21.70;57.80
68922;DHT22;55959;51.244;5.724;2022-07-24T02:22:09;21.70;57.90
68922;DHT22;55959;51.244;5.724;2022-07-24T02:24:35;21.70;58.00
68922;DHT22;55959;51.244;5.724;2022-07-24T02:27:01;21.70;58.10
68922;DHT22;55959;51.244;5.724;2022-07-24T02:29:26;21.60;58.10
68922;DHT22;55959;51.244;5.724;2022-07-24T02:31:52;21.60;58.20
68922;DHT22;55959;51.244;5.724;2022-07-24T02:34:18;21.60;58.20
68922;DHT22;55959;51.244;5.724;2022-07-24T02:36:44;21.60;58.30
68922;DHT22;55959;51.244;5.724;2022-07-24T02:39:10;21.50;58.20
68922;DHT22;55959;51.244;5.724;2022-07-24T02:41:35;21.50;58.40
68922;DHT22;55959;51.244;5.724;2022-07-24T02:44:01;21.50;58.50
68922;DHT22;55959;51.244;5.724;2022-07-24T02:46:27;21.40;58.50
68922;DHT22;55959;51.244;5.724;2022-07-24T02:48:53;21.40;58.60
68922;DHT22;55959;51.244;5.724;2022-07-24T02:51:21;21.40;58.60
68922;DHT22;55959;51.244;5.724;2022-07-24T02:53:47;21.40;58.60
68922;DHT22;55959;51.244;5.724;2022-07-24T02:56:13;21.30;58.70
68922;DHT22;55959;51.244;5.724;2022-07-24T02:58:38;21.30;58.80
68922;DHT22;55959;51.244;5.724;2022-07-24T03:01:04;21.30;58.90
68922;DHT22;55959;51.244;5.724;2022-07-24T03:03:30;21.30;58.90
68922;DHT22;55959;51.244;5.724;2022-07-24T03:05:56;21.20;59.00
68922;DHT22;55959;51.244;5.724;2022-07-24T03:08:21;21.20;59.00
68922;DHT22;55959;51.244;5.724;2022-07-24T03:10:47;21.20;59.10
68922;DHT22;55959;51.244;5.724;2022-07-24T03:13:13;21.20;59.10
68922;DHT22;55959;51.244;5.724;2022-07-24T03:15:39;21.20;59.20
68922;DHT22;55959;51.244;5.724;2022-07-24T03:18:05;21.10;59.20
68922;DHT22;55959;51.244;5.724;2022-07-24T03:20:31;21.10;59.30
68922;DHT22;55959;51.244;5.724;2022-07-24T03:22:57;21.10;59.30
68922;DHT22;55959;51.244;5.724;2022-07-24T03:25:23;21.00;59.30
68922;DHT22;55959;51.244;5.724;2022-07-24T03:27:49;21.10;59.30
68922;DHT22;55959;51.244;5.724;2022-07-24T03:30:16;21.00;59.30
68922;DHT22;55959;51.244;5.724;2022-07-24T03:32:42;21.00;59.30
68922;DHT22;55959;51.244;5.724;2022-07-24T03:35:08;21.00;59.40
68922;DHT22;55959;51.244;5.724;2022-07-24T03:37:34;20.90;59.40
68922;DHT22;55959;51.244;5.724;2022-07-24T03:40:00;21.00;59.50
68922;DHT22;55959;51.244;5.724;2022-07-24T03:42:27;20.90;59.60
68922;DHT22;55959;51.244;5.724;2022-07-24T03:44:53;20.90;59.60
68922;DHT22;55959;51.244;5.724;2022-07-24T03:47:19;20.90;59.60
68922;DHT22;55959;51.244;5.724;2022-07-24T03:49:45;20.90;59.60
68922;DHT22;55959;51.244;5.724;2022-07-24T03:52:11;20.90;59.60
68922;DHT22;55959;51.244;5.724;2022-07-24T03:54:36;20.90;59.70
68922;DHT22;55959;51.244;5.724;2022-07-24T03:57:02;20.90;59.80
68922;DHT22;55959;51.244;5.724;2022-07-24T03:59:28;20.80;59.80
68922;DHT22;55959;51.244;5.724;2022-07-24T04:01:53;20.80;59.80
68922;DHT22;55959;51.244;5.724;2022-07-24T04:04:20;20.80;60.60
68922;DHT22;55959;51.244;5.724;2022-07-24T04:06:46;20.80;60.00
68922;DHT22;55959;51.244;5.724;2022-07-24T04:09:12;20.80;60.00
68922;DHT22;55959;51.244;5.724;2022-07-24T04:11:38;20.70;60.10
68922;DHT22;55959;51.244;5.724;2022-07-24T04:14:04;20.70;60.20
68922;DHT22;55959;51.244;5.724;2022-07-24T04:16:30;20.70;60.30
68922;DHT22;55959;51.244;5.724;2022-07-24T04:18:56;20.70;60.40
68922;DHT22;55959;51.244;5.724;2022-07-24T04:21:22;20.70;60.60
68922;DHT22;55959;51.244;5.724;2022-07-24T04:23:48;20.70;60.60
68922;DHT22;55959;51.244;5.724;2022-07-24T04:26:13;20.70;60.80
68922;DHT22;55959;51.244;5.724;2022-07-24T04:28:39;20.70;60.90
68922;DHT22;55959;51.244;5.724;2022-07-24T04:31:07;20.70;61.00
68922;DHT22;55959;51.244;5.724;2022-07-24T04:33:33;20.70;61.00
68922;DHT22;55959;51.244;5.724;2022-07-24T04:35:59;20.70;61.20
68922;DHT22;55959;51.244;5.724;2022-07-24T04:38:25;20.70;61.30
68922;DHT22;55959;51.244;5.724;2022-07-24T04:40:51;20.70;61.40
68922;DHT22;55959;51.244;5.724;2022-07-24T04:43:16;20.70;61.60
68922;DHT22;55959;51.244;5.724;2022-07-24T04:45:42;20.70;61.70
68922;DHT22;55959;51.244;5.724;2022-07-24T04:48:08;20.70;61.80
68922;DHT22;55959;51.244;5.724;2022-07-24T04:50:34;20.70;61.90
68922;DHT22;55959;51.244;5.724;2022-07-24T04:53:00;20.70;62.00
68922;DHT22;55959;51.244;5.724;2022-07-24T04:55:25;20.80;62.20
68922;DHT22;55959;51.244;5.724;2022-07-24T04:57:51;20.80;62.50
68922;DHT22;55959;51.244;5.724;2022-07-24T05:00:17;20.80;62.60
68922;DHT22;55959;51.244;5.724;2022-07-24T05:02:43;20.80;62.60
68922;DHT22;55959;51.244;5.724;2022-07-24T05:05:09;20.90;62.60
68922;DHT22;55959;51.244;5.724;2022-07-24T05:07:34;20.90;62.70
68922;DHT22;55959;51.244;5.724;2022-07-24T05:10:00;20.90;62.80
68922;DHT22;55959;51.244;5.724;2022-07-24T05:12:26;21.00;63.00
68922;DHT22;55959;51.244;5.724;2022-07-24T05:14:52;21.00;63.00
68922;DHT22;55959;51.244;5.724;2022-07-24T05:17:18;21.10;63.30
68922;DHT22;55959;51.244;5.724;2022-07-24T05:19:44;21.10;63.40
68922;DHT22;55959;51.244;5.724;2022-07-24T05:22:09;21.20;63.60
68922;DHT22;55959;51.244;5.724;2022-07-24T05:24:35;21.30;63.80
68922;DHT22;55959;51.244;5.724;2022-07-24T05:27:01;21.40;64.70
68922;DHT22;55959;51.244;5.724;2022-07-24T05:29:27;21.60;63.80
68922;DHT22;55959;51.244;5.724;2022-07-24T05:31:52;21.60;63.60
68922;DHT22;55959;51.244;5.724;2022-07-24T05:34:20;21.70;63.40
68922;DHT22;55959;51.244;5.724;2022-07-24T05:36:47;21.80;63.50
68922;DHT22;55959;51.244;5.724;2022-07-24T05:39:13;21.90;63.60
68922;DHT22;55959;51.244;5.724;2022-07-24T05:41:38;22.00;63.80
68922;DHT22;55959;51.244;5.724;2022-07-24T05:44:04;22.10;64.10
68922;DHT22;55959;51.244;5.724;2022-07-24T05:46:30;22.40;64.40
68922;DHT22;55959;51.244;5.724;2022-07-24T05:48:56;22.60;64.40
68922;DHT22;55959;51.244;5.724;2022-07-24T05:51:22;22.90;64.20
68922;DHT22;55959;51.244;5.724;2022-07-24T05:53:48;23.10;63.80
68922;DHT22;55959;51.244;5.724;2022-07-24T05:56:13;23.50;63.40
68922;DHT22;55959;51.244;5.724;2022-07-24T05:58:39;23.80;62.90
68922;DHT22;55959;51.244;5.724;2022-07-24T06:01:05;24.10;62.30
68922;DHT22;55959;51.244;5.724;2022-07-24T06:03:31;24.30;61.30
68922;DHT22;55959;51.244;5.724;2022-07-24T06:05:56;24.60;60.70
68922;DHT22;55959;51.244;5.724;2022-07-24T06:08:22;24.90;60.20
68922;DHT22;55959;51.244;5.724;2022-07-24T06:10:48;25.20;59.80
68922;DHT22;55959;51.244;5.724;2022-07-24T06:13:14;25.40;59.50
68922;DHT22;55959;51.244;5.724;2022-07-24T06:15:39;25.70;59.00
68922;DHT22;55959;51.244;5.724;2022-07-24T06:18:05;26.00;58.40
68922;DHT22;55959;51.244;5.724;2022-07-24T06:20:31;26.30;58.00
68922;DHT22;55959;51.244;5.724;2022-07-24T06:22:57;26.50;57.30
68922;DHT22;55959;51.244;5.724;2022-07-24T06:25:22;26.70;57.00
68922;DHT22;55959;51.244;5.724;2022-07-24T06:27:50;27.00;56.50
68922;DHT22;55959;51.244;5.724;2022-07-24T06:30:19;27.30;56.20
68922;DHT22;55959;51.244;5.724;2022-07-24T06:32:48;27.60;55.40
68922;DHT22;55959;51.244;5.724;2022-07-24T06:35:14;27.80;54.80
68922;DHT22;55959;51.244;5.724;2022-07-24T06:37:41;28.10;54.50
68922;DHT22;55959;51.244;5.724;2022-07-24T06:40:07;28.40;54.00
68922;DHT22;55959;51.244;5.724;2022-07-24T06:42:34;28.60;53.50
68922;DHT22;55959;51.244;5.724;2022-07-24T06:45:00;28.80;52.50
68922;DHT22;55959;51.244;5.724;2022-07-24T06:47:27;29.00;51.70
68922;DHT22;55959;51.244;5.724;2022-07-24T06:49:53;29.20;50.90
68922;DHT22;55959;51.244;5.724;2022-07-24T06:52:19;29.30;50.70
68922;DHT22;55959;51.244;5.724;2022-07-24T06:54:45;29.40;50.70
68922;DHT22;55959;51.244;5.724;2022-07-24T06:57:11;29.50;50.50
68922;DHT22;55959;51.244;5.724;2022-07-24T06:59:37;29.60;49.90
68922;DHT22;55959;51.244;5.724;2022-07-24T07:02:03;29.60;49.30
68922;DHT22;55959;51.244;5.724;2022-07-24T07:04:28;29.60;48.80
68922;DHT22;55959;51.244;5.724;2022-07-24T07:06:54;29.50;48.60
68922;DHT22;55959;51.244;5.724;2022-07-24T07:09:20;29.40;48.00
68922;DHT22;55959;51.244;5.724;2022-07-24T07:11:46;29.30;48.00
68922;DHT22;55959;51.244;5.724;2022-07-24T07:14:11;29.10;48.10
68922;DHT22;55959;51.244;5.724;2022-07-24T07:16:37;29.00;48.40
68922;DHT22;55959;51.244;5.724;2022-07-24T07:19:03;28.70;48.80
68922;DHT22;55959;51.244;5.724;2022-07-24T07:21:29;28.60;48.60
68922;DHT22;55959;51.244;5.724;2022-07-24T07:23:54;28.40;48.70
68922;DHT22;55959;51.244;5.724;2022-07-24T07:26:20;28.20;48.90
68922;DHT22;55959;51.244;5.724;2022-07-24T07:28:46;28.00;49.20
68922;DHT22;55959;51.244;5.724;2022-07-24T07:31:12;27.90;49.60
68922;DHT22;55959;51.244;5.724;2022-07-24T07:33:38;27.80;49.90
68922;DHT22;55959;51.244;5.724;2022-07-24T07:36:03;27.60;50.00
68922;DHT22;55959;51.244;5.724;2022-07-24T07:38:30;27.50;50.10
68922;DHT22;55959;51.244;5.724;2022-07-24T07:40:55;27.40;50.30
68922;DHT22;55959;51.244;5.724;2022-07-24T07:43:21;27.40;50.50
68922;DHT22;55959;51.244;5.724;2022-07-24T07:45:47;27.30;50.70
68922;DHT22;55959;51.244;5.724;2022-07-24T07:48:12;27.20;50.90
68922;DHT22;55959;51.244;5.724;2022-07-24T07:50:38;27.10;51.20
68922;DHT22;55959;51.244;5.724;2022-07-24T07:53:04;27.10;51.40
68922;DHT22;55959;51.244;5.724;2022-07-24T07:55:30;27.10;51.40
68922;DHT22;55959;51.244;5.724;2022-07-24T07:57:55;27.10;51.40
68922;DHT22;55959;51.244;5.724;2022-07-24T08:00:21;27.00;51.00
68922;DHT22;55959;51.244;5.724;2022-07-24T08:02:47;27.00;51.40
68922;DHT22;55959;51.244;5.724;2022-07-24T08:05:13;27.00;50.90
68922;DHT22;55959;51.244;5.724;2022-07-24T08:07:39;26.90;51.00
68922;DHT22;55959;51.244;5.724;2022-07-24T08:10:05;26.90;51.20
68922;DHT22;55959;51.244;5.724;2022-07-24T08:12:32;26.90;51.50
68922;DHT22;55959;51.244;5.724;2022-07-24T08:14:57;26.90;51.50
68922;DHT22;55959;51.244;5.724;2022-07-24T08:17:23;27.00;51.10
68922;DHT22;55959;51.244;5.724;2022-07-24T08:19:49;27.00;51.10
68922;DHT22;55959;51.244;5.724;2022-07-24T08:22:14;27.00;51.00
68922;DHT22;55959;51.244;5.724;2022-07-24T08:24:40;27.00;50.90
68922;DHT22;55959;51.244;5.724;2022-07-24T08:27:06;27.10;50.70
68922;DHT22;55959;51.244;5.724;2022-07-24T08:29:32;27.10;50.50
68922;DHT22;55959;51.244;5.724;2022-07-24T08:31:58;27.10;50.20
68922;DHT22;55959;51.244;5.724;2022-07-24T08:34:24;27.10;50.10
68922;DHT22;55959;51.244;5.724;2022-07-24T08:36:50;27.10;50.20
68922;DHT22;55959;51.244;5.724;2022-07-24T08:39:16;27.20;50.20
68922;DHT22;55959;51.244;5.724;2022-07-24T08:41:44;27.20;50.20
68922;DHT22;55959;51.244;5.724;2022-07-24T08:44:10;27.20;49.90
68922;DHT22;55959;51.244;5.724;2022-07-24T08:46:38;27.20;49.70
68922;DHT22;55959;51.244;5.724;2022-07-24T08:49:14;27.30;49.60
68922;DHT22;55959;51.244;5.724;2022-07-24T08:51:41;27.30;49.00
68922;DHT22;55959;51.244;5.724;2022-07-24T08:54:09;27.30;48.80
68922;DHT22;55959;51.244;5.724;2022-07-24T08:56:39;27.40;48.90
68922;DHT22;55959;51.244;5.724;2022-07-24T08:59:10;27.40;48.50
68922;DHT22;55959;51.244;5.724;2022-07-24T09:01:41;27.40;48.00
68922;DHT22;55959;51.244;5.724;2022-07-24T09:04:30;27.40;47.90
68922;DHT22;55959;51.244;5.724;2022-07-24T09:06:58;27.50;47.90
68922;DHT22;55959;51.244;5.724;2022-07-24T09:09:24;27.50;47.70
68922;DHT22;55959;51.244;5.724;2022-07-24T09:11:50;27.50;47.90
68922;DHT22;55959;51.244;5.724;2022-07-24T09:14:32;27.50;47.50
68922;DHT22;55959;51.244;5.724;2022-07-24T09:17:07;27.60;47.70
68922;DHT22;55959;51.244;5.724;2022-07-24T09:19:57;27.60;47.40
68922;DHT22;55959;51.244;5.724;2022-07-24T09:22:40;27.60;47.40
68922;DHT22;55959;51.244;5.724;2022-07-24T09:30:27;27.70;47.20
68922;DHT22;55959;51.244;5.724;2022-07-24T09:33:00;27.80;46.60
68922;DHT22;55959;51.244;5.724;2022-07-24T09:35:50;27.80;46.10
68922;DHT22;55959;51.244;5.724;2022-07-24T09:38:21;27.90;45.70
68922;DHT22;55959;51.244;5.724;2022-07-24T09:40:53;27.90;46.10
68922;DHT22;55959;51.244;5.724;2022-07-24T09:45:57;28.00;46.10
68922;DHT22;55959;51.244;5.724;2022-07-24T09:48:39;28.00;45.70
68922;DHT22;55959;51.244;5.724;2022-07-24T09:51:14;28.10;45.90
68922;DHT22;55959;51.244;5.724;2022-07-24T09:53:43;28.10;45.50
68922;DHT22;55959;51.244;5.724;2022-07-24T09:56:14;28.20;45.50
68922;DHT22;55959;51.244;5.724;2022-07-24T09:58:49;28.20;45.20
68922;DHT22;55959;51.244;5.724;2022-07-24T10:01:24;28.30;44.80
68922;DHT22;55959;51.244;5.724;2022-07-24T10:03:52;28.30;44.90
68922;DHT22;55959;51.244;5.724;2022-07-24T10:06:22;28.40;44.30
68922;DHT22;55959;51.244;5.724;2022-07-24T10:08:52;28.40;44.20
68922;DHT22;55959;51.244;5.724;2022-07-24T10:11:19;28.40;44.30
68922;DHT22;55959;51.244;5.724;2022-07-24T10:13:45;28.50;44.50
68922;DHT22;55959;51.244;5.724;2022-07-24T10:18:59;28.60;44.60
68922;DHT22;55959;51.244;5.724;2022-07-24T10:21:50;28.60;44.40
68922;DHT22;55959;51.244;5.724;2022-07-24T10:25:08;28.70;44.40
68922;DHT22;55959;51.244;5.724;2022-07-24T10:27:30;28.70;44.40
68922;DHT22;55959;51.244;5.724;2022-07-24T10:30:07;28.80;44.60
68922;DHT22;55959;51.244;5.724;2022-07-24T10:32:35;28.80;44.60
68922;DHT22;55959;51.244;5.724;2022-07-24T10:35:17;28.90;44.70
68922;DHT22;55959;51.244;5.724;2022-07-24T10:37:58;28.90;44.70
68922;DHT22;55959;51.244;5.724;2022-07-24T10:40:51;29.00;44.70
68922;DHT22;55959;51.244;5.724;2022-07-24T10:43:21;29.00;44.40
68922;DHT22;55959;51.244;5.724;2022-07-24T10:51:13;29.20;43.90
68922;DHT22;55959;51.244;5.724;2022-07-24T10:56:20;29.30;43.90
68922;DHT22;55959;51.244;5.724;2022-07-24T10:59:09;29.30;43.80
68922;DHT22;55959;51.244;5.724;2022-07-24T11:06:54;29.50;43.80
68922;DHT22;55959;51.244;5.724;2022-07-24T11:09:24;29.50;43.80
68922;DHT22;55959;51.244;5.724;2022-07-24T11:14:47;29.60;43.60
68922;DHT22;55959;51.244;5.724;2022-07-24T11:17:39;29.70;43.80
68922;DHT22;55959;51.244;5.724;2022-07-24T11:20:10;29.70;43.80
68922;DHT22;55959;51.244;5.724;2022-07-24T11:22:52;29.70;43.60
68922;DHT22;55959;51.244;5.724;2022-07-24T11:25:28;29.90;43.40
68922;DHT22;55959;51.244;5.724;2022-07-24T11:28:11;29.90;43.30
68922;DHT22;55959;51.244;5.724;2022-07-24T11:30:43;29.90;43.50
68922;DHT22;55959;51.244;5.724;2022-07-24T11:33:19;30.00;43.60
68922;DHT22;55959;51.244;5.724;2022-07-24T11:35:46;30.00;43.50
68922;DHT22;55959;51.244;5.724;2022-07-24T11:38:12;30.10;43.50
68922;DHT22;55959;51.244;5.724;2022-07-24T11:40:39;30.10;43.10
68922;DHT22;55959;51.244;5.724;2022-07-24T11:43:06;30.20;43.20
68922;DHT22;55959;51.244;5.724;2022-07-24T11:45:34;30.20;43.30
68922;DHT22;55959;51.244;5.724;2022-07-24T11:48:00;30.30;43.30
68922;DHT22;55959;51.244;5.724;2022-07-24T11:50:27;30.30;43.40
68922;DHT22;55959;51.244;5.724;2022-07-24T11:52:53;30.40;43.20
68922;DHT22;55959;51.244;5.724;2022-07-24T11:55:22;30.40;43.10
68922;DHT22;55959;51.244;5.724;2022-07-24T11:57:52;30.50;43.20
68922;DHT22;55959;51.244;5.724;2022-07-24T12:00:22;30.50;43.00
68922;DHT22;55959;51.244;5.724;2022-07-24T12:02:55;30.60;43.00
68922;DHT22;55959;51.244;5.724;2022-07-24T12:05:36;30.70;42.40
68922;DHT22;55959;51.244;5.724;2022-07-24T12:08:14;30.80;42.30
68922;DHT22;55959;51.244;5.724;2022-07-24T12:10:42;30.80;42.60
68922;DHT22;55959;51.244;5.724;2022-07-24T12:13:07;30.90;42.80
68922;DHT22;55959;51.244;5.724;2022-07-24T12:15:38;31.00;42.30
68922;DHT22;55959;51.244;5.724;2022-07-24T12:18:07;31.00;42.00
68922;DHT22;55959;51.244;5.724;2022-07-24T12:20:36;31.00;41.90
68922;DHT22;55959;51.244;5.724;2022-07-24T12:23:16;31.10;41.70
68922;DHT22;55959;51.244;5.724;2022-07-24T12:25:44;31.20;41.50
68922;DHT22;55959;51.244;5.724;2022-07-24T12:28:16;31.20;42.40
68922;DHT22;55959;51.244;5.724;2022-07-24T12:30:53;31.30;41.60
68922;DHT22;55959;51.244;5.724;2022-07-24T12:36:02;31.50;41.30
68922;DHT22;55959;51.244;5.724;2022-07-24T12:38:54;31.50;41.50
68922;DHT22;55959;51.244;5.724;2022-07-24T12:41:26;31.60;41.20
68922;DHT22;55959;51.244;5.724;2022-07-24T12:43:58;31.60;41.00
68922;DHT22;55959;51.244;5.724;2022-07-24T12:49:03;31.70;41.00
68922;DHT22;55959;51.244;5.724;2022-07-24T12:54:34;31.90;40.90
68922;DHT22;55959;51.244;5.724;2022-07-24T12:57:09;31.90;40.90
68922;DHT22;55959;51.244;5.724;2022-07-24T12:59:37;32.00;40.40
68922;DHT22;55959;51.244;5.724;2022-07-24T13:02:09;32.10;39.90
68922;DHT22;55959;51.244;5.724;2022-07-24T13:04:53;32.10;40.10
68922;DHT22;55959;51.244;5.724;2022-07-24T13:07:22;32.20;40.30
68922;DHT22;55959;51.244;5.724;2022-07-24T13:09:50;32.30;39.90
68922;DHT22;55959;51.244;5.724;2022-07-24T13:12:17;32.30;40.00
68922;DHT22;55959;51.244;5.724;2022-07-24T13:14:43;32.40;39.90
68922;DHT22;55959;51.244;5.724;2022-07-24T13:17:14;32.40;40.00
68922;DHT22;55959;51.244;5.724;2022-07-24T13:19:43;32.50;39.70
68922;DHT22;55959;51.244;5.724;2022-07-24T13:22:14;32.60;39.50
68922;DHT22;55959;51.244;5.724;2022-07-24T13:24:41;32.70;39.30
68922;DHT22;55959;51.244;5.724;2022-07-24T13:27:08;32.70;38.90
68922;DHT22;55959;51.244;5.724;2022-07-24T13:29:36;32.80;38.80
68922;DHT22;55959;51.244;5.724;2022-07-24T13:32:03;32.80;38.20
68922;DHT22;55959;51.244;5.724;2022-07-24T13:34:31;32.90;38.60
68922;DHT22;55959;51.244;5.724;2022-07-24T13:36:57;32.90;38.10
68922;DHT22;55959;51.244;5.724;2022-07-24T13:39:23;32.90;38.50
68922;DHT22;55959;51.244;5.724;2022-07-24T13:41:49;33.00;38.70
68922;DHT22;55959;51.244;5.724;2022-07-24T13:44:14;33.10;38.60
68922;DHT22;55959;51.244;5.724;2022-07-24T13:46:41;33.10;38.60
68922;DHT22;55959;51.244;5.724;2022-07-24T13:49:08;33.20;38.60
68922;DHT22;55959;51.244;5.724;2022-07-24T13:51:37;33.30;38.20
68922;DHT22;55959;51.244;5.724;2022-07-24T13:54:04;33.30;38.00
68922;DHT22;55959;51.244;5.724;2022-07-24T13:56:30;33.40;38.10
68922;DHT22;55959;51.244;5.724;2022-07-24T13:58:57;33.40;37.90
68922;DHT22;55959;51.244;5.724;2022-07-24T14:01:23;33.40;37.80
68922;DHT22;55959;51.244;5.724;2022-07-24T14:03:49;33.50;37.60
68922;DHT22;55959;51.244;5.724;2022-07-24T14:06:15;33.50;37.60
68922;DHT22;55959;51.244;5.724;2022-07-24T14:08:41;33.60;37.20
68922;DHT22;55959;51.244;5.724;2022-07-24T14:11:08;33.60;37.30
68922;DHT22;55959;51.244;5.724;2022-07-24T14:13:34;33.60;37.30
68922;DHT22;55959;51.244;5.724;2022-07-24T14:16:00;33.70;37.80
68922;DHT22;55959;51.244;5.724;2022-07-24T14:18:26;33.80;37.50
68922;DHT22;55959;51.244;5.724;2022-07-24T14:20:52;33.80;37.80
68922;DHT22;55959;51.244;5.724;2022-07-24T14:23:18;33.90;36.30
68922;DHT22;55959;51.244;5.724;2022-07-24T14:25:44;33.90;36.90
68922;DHT22;55959;51.244;5.724;2022-07-24T14:28:11;34.00;37.00
68922;DHT22;55959;51.244;5.724;2022-07-24T14:30:37;34.00;36.90
68922;DHT22;55959;51.244;5.724;2022-07-24T14:33:03;34.10;36.70
68922;DHT22;55959;51.244;5.724;2022-07-24T14:35:28;34.20;36.90
68922;DHT22;55959;51.244;5.724;2022-07-24T14:37:56;34.20;36.60
68922;DHT22;55959;51.244;5.724;2022-07-24T14:40:23;34.20;36.50
68922;DHT22;55959;51.244;5.724;2022-07-24T14:42:49;34.20;36.00
68922;DHT22;55959;51.244;5.724;2022-07-24T14:45:15;34.30;36.40
68922;DHT22;55959;51.244;5.724;2022-07-24T14:47:41;34.30;36.10
68922;DHT22;55959;51.244;5.724;2022-07-24T14:50:08;34.40;36.20
68922;DHT22;55959;51.244;5.724;2022-07-24T14:52:36;34.40;36.40
68922;DHT22;55959;51.244;5.724;2022-07-24T14:55:03;34.40;36.40
68922;DHT22;55959;51.244;5.724;2022-07-24T14:57:30;34.50;36.40
68922;DHT22;55959;51.244;5.724;2022-07-24T14:59:56;34.50;36.10
68922;DHT22;55959;51.244;5.724;2022-07-24T15:02:22;34.50;35.70
68922;DHT22;55959;51.244;5.724;2022-07-24T15:04:48;34.60;35.70
68922;DHT22;55959;51.244;5.724;2022-07-24T15:07:13;34.60;35.90
68922;DHT22;55959;51.244;5.724;2022-07-24T15:09:39;34.60;35.70
68922;DHT22;55959;51.244;5.724;2022-07-24T15:12:05;34.70;35.70
68922;DHT22;55959;51.244;5.724;2022-07-24T15:14:32;34.70;34.90
68922;DHT22;55959;51.244;5.724;2022-07-24T15:16:58;34.70;35.20
68922;DHT22;55959;51.244;5.724;2022-07-24T15:19:24;34.70;34.60
68922;DHT22;55959;51.244;5.724;2022-07-24T15:21:50;34.70;34.80
68922;DHT22;55959;51.244;5.724;2022-07-24T15:24:15;34.70;34.90
68922;DHT22;55959;51.244;5.724;2022-07-24T15:26:41;34.80;34.60
68922;DHT22;55959;51.244;5.724;2022-07-24T15:29:07;34.80;34.40
68922;DHT22;55959;51.244;5.724;2022-07-24T15:31:33;34.80;34.00
68922;DHT22;55959;51.244;5.724;2022-07-24T15:33:58;34.80;34.40
68922;DHT22;55959;51.244;5.724;2022-07-24T15:36:24;34.80;34.60
68922;DHT22;55959;51.244;5.724;2022-07-24T15:38:50;34.80;34.60
68922;DHT22;55959;51.244;5.724;2022-07-24T15:41:16;34.80;34.70
68922;DHT22;55959;51.244;5.724;2022-07-24T15:43:41;34.90;34.70
68922;DHT22;55959;51.244;5.724;2022-07-24T15:46:07;34.90;34.50
68922;DHT22;55959;51.244;5.724;2022-07-24T15:48:33;34.90;34.70
68922;DHT22;55959;51.244;5.724;2022-07-24T15:50:59;34.90;34.70
68922;DHT22;55959;51.244;5.724;2022-07-24T15:53:24;35.00;34.60
68922;DHT22;55959;51.244;5.724;2022-07-24T15:55:50;35.00;34.30
68922;DHT22;55959;51.244;5.724;2022-07-24T15:58:16;35.00;34.70
68922;DHT22;55959;51.244;5.724;2022-07-24T16:00:41;35.00;34.40
68922;DHT22;55959;51.244;5.724;2022-07-24T16:03:07;35.00;33.90
68922;DHT22;55959;51.244;5.724;2022-07-24T16:05:34;35.00;34.20
68922;DHT22;55959;51.244;5.724;2022-07-24T16:08:00;35.00;34.20